createdAt,value
2022-11-26T00:02:31.547Z,44.17
2022-11-26T00:05:00.128Z,41.10
2022-11-26T00:07:31.282Z,44.50
2022-11-26T00:09:59.557Z,51.97
2022-11-26T00:12:34.359Z,52.30
2022-11-26T00:15:18.086Z,53.90
2022-11-26T00:17:45.384Z,48.23
2022-11-26T00:20:13.063Z,47.10
2022-11-26T00:22:43.641Z,52.13
2022-11-26T00:25:20.280Z,55.17
2022-11-26T00:27:48.888Z,50.90
2022-11-26T00:30:28.239Z,51.77
2022-11-26T00:32:56.507Z,50.93
2022-11-26T00:35:24.374Z,47.00
2022-11-26T00:37:55.087Z,45.50
2022-11-26T00:40:27.742Z,45.50
2022-11-26T00:43:00.245Z,51.47
2022-11-26T00:45:31.587Z,54.00
2022-11-26T00:47:58.830Z,64.83
2022-11-26T00:50:27.848Z,90.53
2022-11-26T00:52:56.914Z,81.90
2022-11-26T00:55:38.398Z,78.87
2022-11-26T00:58:07.676Z,73.80
2022-11-26T01:00:35.922Z,74.57
2022-11-26T01:03:03.290Z,65.53
2022-11-26T01:05:34.113Z,67.13
2022-11-26T01:08:10.815Z,62.97
2022-11-26T01:10:38.063Z,59.70
2022-11-26T01:13:09.834Z,60.77
2022-11-26T01:15:37.168Z,57.77
2022-11-26T01:18:13.332Z,54.97
2022-11-26T01:20:40.863Z,48.27
2022-11-26T01:23:12.527Z,48.40
2022-11-26T01:25:40.539Z,45.53
2022-11-26T01:28:13.842Z,38.93
2022-11-26T01:30:41.965Z,39.07
2022-11-26T01:33:09.370Z,36.40
2022-11-26T01:35:37.597Z,46.20
2022-11-26T01:38:05.824Z,49.87
2022-11-26T01:40:35.763Z,43.17
2022-11-26T01:43:18.110Z,67.27
2022-11-26T01:45:45.458Z,63.40
2022-11-26T01:48:28.113Z,54.90
2022-11-26T01:51:03.045Z,53.87
2022-11-26T01:53:33.143Z,53.23
2022-11-26T01:56:05.539Z,81.47
2022-11-26T01:58:42.608Z,63.97
2022-11-26T02:01:10.646Z,107.27
2022-11-26T02:04:04.155Z,98.53
2022-11-26T02:06:33.901Z,112.50
2022-11-26T02:09:07.712Z,106.30
2022-11-26T02:11:35.304Z,78.43
2022-11-26T02:14:07.900Z,69.03
2022-11-26T02:16:50.029Z,34.70
2022-11-26T02:19:46.273Z,36.07
2022-11-26T02:22:51.404Z,38.00
2022-11-26T02:25:48.156Z,38.10
2022-11-26T02:28:36.596Z,36.27
2022-11-26T02:31:08.918Z,37.00
2022-11-26T02:34:03.141Z,63.47
2022-11-26T02:36:51.709Z,61.30
2022-11-26T02:39:22.369Z,52.37
2022-11-26T02:41:52.749Z,55.87
2022-11-26T02:44:23.901Z,53.80
2022-11-26T02:47:05.032Z,50.77
2022-11-26T02:49:34.861Z,65.57
2022-11-26T02:52:05.219Z,60.13
2022-11-26T02:54:33.760Z,52.33
2022-11-26T02:57:03.817Z,38.30
2022-11-26T02:59:31.623Z,38.13
2022-11-26T03:02:05.187Z,35.70
2022-11-26T03:04:37.840Z,34.53
2022-11-26T03:07:08.030Z,32.90
2022-11-26T03:09:48.886Z,32.50
2022-11-26T03:12:16.405Z,29.07
2022-11-26T03:14:43.638Z,33.20
2022-11-26T03:17:10.871Z,34.80
2022-11-26T03:19:38.317Z,36.33
2022-11-26T03:22:05.608Z,62.20
2022-11-26T03:24:33.440Z,52.17
2022-11-26T03:27:00.812Z,43.60
2022-11-26T03:29:28.209Z,47.47
2022-11-26T03:31:56.036Z,43.97
2022-11-26T03:34:23.376Z,42.47
2022-11-26T03:36:50.816Z,46.30
2022-11-26T03:39:18.337Z,48.20
2022-11-26T03:41:46.007Z,48.70
2022-11-26T03:44:14.514Z,48.93
2022-11-26T03:46:42.120Z,47.37
2022-11-26T03:49:09.477Z,44.97
2022-11-26T03:51:36.744Z,44.50
2022-11-26T03:54:04.153Z,37.90
2022-11-26T03:56:31.539Z,43.73
2022-11-26T03:58:58.855Z,40.67
2022-11-26T04:01:26.150Z,42.40
2022-11-26T04:03:53.712Z,42.60
2022-11-26T04:06:21.823Z,44.00
2022-11-26T04:08:49.000Z,44.07
2022-11-26T04:11:16.463Z,41.47
2022-11-26T04:13:43.678Z,42.47
2022-11-26T04:16:11.265Z,41.17
2022-11-26T04:18:38.506Z,42.17
2022-11-26T04:21:09.264Z,42.10
2022-11-26T04:23:37.392Z,39.53
2022-11-26T04:26:05.235Z,35.87
2022-11-26T04:28:32.814Z,41.33
2022-11-26T04:31:00.144Z,40.80
2022-11-26T04:33:27.407Z,43.47
2022-11-26T04:35:54.855Z,72.37
2022-11-26T04:38:25.690Z,99.10
2022-11-26T04:40:53.167Z,59.43
2022-11-26T04:43:20.434Z,66.53
2022-11-26T04:45:47.684Z,61.07
2022-11-26T04:48:15.023Z,48.10
2022-11-26T04:50:42.605Z,42.60
2022-11-26T04:53:10.537Z,45.40
2022-11-26T04:55:37.813Z,44.50
2022-11-26T04:58:04.963Z,43.40
2022-11-26T05:00:32.594Z,48.63
2022-11-26T05:02:59.899Z,55.40
2022-11-26T05:05:27.102Z,58.27
2022-11-26T05:07:54.453Z,57.10
2022-11-26T05:10:21.945Z,58.67
2022-11-26T05:12:49.217Z,54.63
2022-11-26T05:15:16.620Z,53.10
2022-11-26T05:17:44.008Z,54.83
2022-11-26T05:20:12.019Z,57.63
2022-11-26T05:22:39.142Z,52.43
2022-11-26T05:25:06.712Z,54.03
2022-11-26T05:27:33.915Z,52.03
2022-11-26T05:30:01.181Z,60.63
2022-11-26T05:32:28.458Z,85.73
2022-11-26T05:34:59.830Z,104.90
2022-11-26T05:37:27.448Z,123.60
2022-11-26T05:39:54.706Z,90.47
2022-11-26T05:42:22.198Z,91.50
2022-11-26T05:44:49.356Z,89.97
2022-11-26T05:47:16.613Z,103.90
2022-11-26T05:49:44.079Z,79.90
2022-11-26T05:52:11.831Z,133.07
2022-11-26T05:54:39.803Z,113.67
2022-11-26T05:57:07.241Z,92.80
2022-11-26T05:59:34.444Z,85.87
2022-11-26T06:02:01.745Z,93.17
2022-11-26T06:04:29.555Z,79.50
2022-11-26T06:06:56.900Z,75.10
2022-11-26T06:09:24.777Z,70.90
2022-11-26T06:11:52.362Z,75.37
2022-11-26T06:14:20.212Z,71.40
2022-11-26T06:16:47.847Z,70.07
2022-11-26T06:19:15.174Z,69.83
2022-11-26T06:21:42.624Z,80.57
2022-11-26T06:24:09.901Z,60.27
2022-11-26T06:26:37.305Z,51.37
2022-11-26T06:29:04.728Z,47.60
2022-11-26T06:31:33.126Z,49.97
2022-11-26T06:34:00.760Z,52.87
2022-11-26T06:36:28.031Z,47.80
2022-11-26T06:38:55.241Z,53.27
2022-11-26T06:41:26.351Z,73.47
2022-11-26T06:43:53.573Z,53.67
2022-11-26T06:46:21.153Z,43.07
2022-11-26T06:48:48.295Z,41.47
2022-11-26T06:51:17.612Z,35.77
2022-11-26T06:53:45.071Z,34.40
2022-11-26T06:56:18.537Z,31.83
2022-11-26T06:58:48.168Z,32.37
2022-11-26T07:01:18.645Z,29.40
2022-11-26T07:03:46.573Z,29.73
2022-11-26T07:06:27.076Z,31.13
2022-11-26T07:08:56.612Z,27.23
2022-11-26T07:11:24.944Z,27.37
2022-11-26T07:13:52.682Z,26.83
2022-11-26T07:16:20.465Z,26.13
2022-11-26T07:18:57.758Z,26.17
2022-11-26T07:21:29.446Z,23.97
2022-11-26T07:23:56.873Z,23.80
2022-11-26T07:26:24.636Z,24.20
2022-11-26T07:28:52.411Z,23.47
2022-11-26T07:31:22.597Z,23.33
2022-11-26T07:33:52.575Z,22.43
2022-11-26T07:36:28.710Z,24.23
2022-11-26T07:39:00.863Z,23.60
2022-11-26T07:41:29.867Z,26.50
2022-11-26T07:43:57.240Z,23.93
2022-11-26T07:46:26.378Z,20.13
2022-11-26T07:48:55.545Z,20.43
2022-11-26T07:51:25.947Z,21.07
2022-11-26T07:53:53.511Z,20.20
2022-11-26T07:56:21.218Z,19.40
2022-11-26T07:58:49.370Z,19.60
2022-11-26T08:01:19.523Z,19.07
2022-11-26T08:03:49.075Z,19.07
2022-11-26T08:06:19.290Z,18.50
2022-11-26T08:08:46.722Z,18.50
2022-11-26T08:11:24.455Z,19.07
2022-11-26T08:14:00.240Z,18.97
2022-11-26T08:16:29.023Z,17.77
2022-11-26T08:19:02.309Z,18.53
2022-11-26T08:21:31.446Z,17.47
2022-11-26T08:23:59.052Z,17.57
2022-11-26T08:26:35.892Z,16.43
2022-11-26T08:29:06.254Z,16.37
2022-11-26T08:31:35.135Z,16.23
2022-11-26T08:34:03.812Z,17.27
2022-11-26T08:36:32.531Z,14.53
2022-11-26T08:39:01.007Z,15.43
2022-11-26T08:41:28.838Z,14.10
2022-11-26T08:44:11.416Z,13.87
2022-11-26T08:46:40.829Z,13.17
2022-11-26T08:49:11.346Z,13.40
2022-11-26T08:51:38.600Z,13.63
2022-11-26T08:54:05.834Z,12.87
2022-11-26T08:56:34.576Z,14.93
2022-11-26T08:59:02.119Z,14.47
2022-11-26T09:01:32.910Z,12.67
2022-11-26T09:04:01.862Z,12.90
2022-11-26T09:06:31.388Z,11.37
2022-11-26T09:09:17.769Z,11.37
2022-11-26T09:11:56.681Z,11.40
2022-11-26T09:14:26.935Z,13.03
2022-11-26T09:16:58.715Z,11.27
2022-11-26T09:19:27.425Z,11.80
2022-11-26T09:21:55.506Z,11.20
2022-11-26T09:24:23.388Z,10.50
2022-11-26T09:26:50.741Z,11.37
2022-11-26T09:29:20.731Z,11.33
2022-11-26T09:32:22.252Z,10.30
2022-11-26T09:34:37.333Z,10.70
2022-11-26T09:37:05.151Z,10.40
2022-11-26T09:39:32.920Z,11.20
2022-11-26T09:42:00.030Z,10.87
2022-11-26T09:44:46.842Z,9.50
2022-11-26T09:47:28.867Z,9.73
2022-11-26T09:50:18.664Z,9.90
2022-11-26T09:52:57.485Z,9.60
2022-11-26T09:55:36.169Z,10.87
2022-11-26T09:58:16.540Z,10.73
2022-11-26T10:00:46.339Z,9.67
2022-11-26T10:03:15.385Z,9.23
2022-11-26T10:06:03.998Z,9.87
2022-11-26T10:08:59.171Z,10.07
2022-11-26T10:11:32.549Z,9.30
2022-11-26T10:14:05.985Z,9.93
2022-11-26T10:16:54.745Z,9.47
2022-11-26T10:19:47.717Z,8.43
2022-11-26T10:22:26.251Z,8.13
2022-11-26T10:24:56.900Z,12.87
2022-11-26T10:27:27.971Z,12.60
2022-11-26T10:30:21.537Z,11.13
2022-11-26T10:32:50.588Z,11.73
2022-11-26T10:35:29.300Z,11.73
2022-11-26T10:37:59.778Z,12.77
2022-11-26T10:40:28.979Z,12.20
2022-11-26T10:42:56.363Z,11.73
2022-11-26T10:45:27.836Z,13.77
2022-11-26T10:48:15.396Z,12.37
2022-11-26T10:50:48.037Z,13.07
2022-11-26T10:53:23.725Z,12.37
2022-11-26T10:55:52.874Z,13.67
2022-11-26T10:58:27.155Z,13.30
2022-11-26T11:00:58.360Z,12.50
2022-11-26T11:04:06.037Z,12.63
2022-11-26T11:06:21.476Z,11.93
2022-11-26T11:08:50.799Z,12.93
2022-11-26T11:11:33.461Z,12.07
2022-11-26T11:14:00.618Z,11.13
2022-11-26T11:16:40.973Z,15.67
2022-11-26T11:19:23.723Z,11.83
2022-11-26T11:21:51.549Z,11.77
2022-11-26T11:24:26.020Z,11.07
2022-11-26T11:26:57.085Z,11.77
2022-11-26T11:29:30.385Z,10.97
2022-11-26T11:31:58.227Z,12.77
2022-11-26T11:34:30.899Z,18.60
2022-11-26T11:37:10.570Z,24.10
2022-11-26T11:39:40.609Z,24.83
2022-11-26T11:42:23.916Z,14.67
2022-11-26T11:44:52.834Z,22.47
2022-11-26T11:47:36.968Z,15.00
2022-11-26T11:50:19.232Z,13.97
2022-11-26T11:52:52.584Z,9.37
2022-11-26T11:55:44.500Z,9.67
2022-11-26T11:58:11.960Z,4.97
2022-11-26T12:00:53.163Z,4.63
2022-11-26T12:03:26.954Z,3.80
2022-11-26T12:06:12.713Z,3.17
2022-11-26T12:08:58.827Z,3.80
2022-11-26T12:11:38.348Z,3.67
2022-11-26T12:14:21.207Z,3.80
2022-11-26T12:16:54.527Z,3.77
2022-11-26T12:19:47.386Z,4.53
2022-11-26T12:22:26.996Z,4.67
2022-11-26T12:25:03.161Z,4.90
2022-11-26T12:27:58.271Z,5.63
2022-11-26T12:30:33.267Z,5.00
2022-11-26T12:33:07.665Z,5.50
2022-11-26T12:35:43.850Z,6.47
2022-11-26T12:38:53.535Z,6.67
2022-11-26T12:41:35.419Z,6.50
2022-11-26T12:44:25.634Z,6.70
2022-11-26T12:47:23.523Z,6.93
2022-11-26T12:50:12.626Z,7.27
2022-11-26T12:53:18.859Z,6.67
2022-11-26T12:56:04.715Z,7.57
2022-11-26T12:58:59.467Z,7.97
2022-11-26T13:01:28.597Z,7.97
2022-11-26T13:04:21.419Z,7.63
2022-11-26T13:07:01.171Z,8.30
2022-11-26T13:09:57.747Z,9.63
2022-11-26T13:12:47.408Z,8.97
2022-11-26T13:15:41.291Z,13.63
2022-11-26T13:18:31.570Z,17.97
2022-11-26T13:21:10.932Z,16.10
2022-11-26T13:23:52.185Z,14.07
2022-11-26T13:26:40.494Z,16.40
2022-11-26T13:29:26.208Z,18.60
2022-11-26T13:32:19.968Z,18.73
2022-11-26T13:35:14.473Z,17.90
2022-11-26T13:38:05.349Z,18.60
2022-11-26T13:40:58.577Z,19.73
2022-11-26T13:44:03.352Z,20.07
2022-11-26T13:46:52.005Z,19.37
2022-11-26T13:49:43.625Z,19.50
2022-11-26T13:52:35.537Z,18.20
2022-11-26T13:55:17.752Z,18.00
2022-11-26T13:57:49.960Z,19.57
2022-11-26T14:00:29.813Z,19.13
2022-11-26T14:02:58.045Z,19.40
2022-11-26T14:05:51.191Z,20.77
2022-11-26T14:08:39.691Z,20.50
2022-11-26T14:11:07.976Z,20.23
2022-11-26T14:13:35.880Z,20.87
2022-11-26T14:16:08.689Z,21.73
2022-11-26T14:18:52.394Z,22.40
2022-11-26T14:21:23.974Z,24.47
2022-11-26T14:23:54.304Z,25.93
2022-11-26T14:26:39.299Z,27.83
2022-11-26T14:29:10.188Z,24.53
2022-11-26T14:31:50.574Z,28.37
2022-11-26T14:34:39.968Z,34.03
2022-11-26T14:37:18.304Z,39.00
2022-11-26T14:39:45.922Z,54.30
2022-11-26T14:42:18.195Z,57.00
2022-11-26T14:44:45.769Z,42.60
2022-11-26T14:47:22.925Z,26.93
2022-11-26T14:49:59.746Z,23.93
2022-11-26T14:52:36.147Z,24.73
2022-11-26T14:55:25.041Z,24.97
2022-11-26T14:58:09.012Z,24.27
2022-11-26T15:00:37.293Z,25.57
2022-11-26T15:03:04.794Z,24.83
2022-11-26T15:05:34.597Z,25.53
2022-11-26T15:08:24.220Z,23.57
2022-11-26T15:10:57.381Z,25.60
2022-11-26T15:13:36.308Z,25.77
2022-11-26T15:16:22.622Z,28.07
2022-11-26T15:18:50.016Z,30.37
2022-11-26T15:21:22.867Z,31.70
2022-11-26T15:23:51.900Z,30.07
2022-11-26T15:26:23.031Z,29.97
2022-11-26T15:28:50.456Z,29.47
2022-11-26T15:31:17.825Z,28.33
2022-11-26T15:33:45.954Z,26.53
2022-11-26T15:36:17.661Z,26.60
2022-11-26T15:39:07.542Z,26.57
2022-11-26T15:41:43.372Z,29.50
2022-11-26T15:44:42.881Z,30.20
2022-11-26T15:47:19.691Z,33.40
2022-11-26T15:49:52.349Z,32.57
2022-11-26T15:52:33.498Z,31.87
2022-11-26T15:55:15.163Z,32.20
2022-11-26T15:57:44.143Z,31.07
2022-11-26T16:00:37.642Z,32.67
2022-11-26T16:03:26.764Z,32.10
2022-11-26T16:05:56.487Z,33.37
2022-11-26T16:08:26.864Z,33.20
2022-11-26T16:11:21.048Z,31.87
2022-11-26T16:13:49.146Z,32.97
2022-11-26T16:16:25.780Z,35.00
2022-11-26T16:19:01.498Z,33.43
2022-11-26T16:21:34.929Z,35.00
2022-11-26T16:24:08.038Z,34.17
2022-11-26T16:27:18.362Z,35.63
2022-11-26T16:29:46.229Z,37.40
2022-11-26T16:32:15.897Z,38.13
2022-11-26T16:34:45.181Z,37.87
2022-11-26T16:37:30.357Z,38.40
2022-11-26T16:40:04.909Z,37.03
2022-11-26T16:42:33.708Z,37.13
2022-11-26T16:45:04.167Z,38.13
2022-11-26T16:47:47.878Z,36.97
2022-11-26T16:50:24.737Z,35.77
2022-11-26T16:52:53.625Z,36.53
2022-11-26T16:55:30.593Z,37.83
2022-11-26T16:58:00.415Z,35.20
2022-11-26T17:00:28.368Z,36.30
2022-11-26T17:02:55.971Z,35.07
2022-11-26T17:05:24.906Z,33.40
2022-11-26T17:07:57.874Z,32.73
2022-11-26T17:10:29.136Z,35.07
2022-11-26T17:12:57.526Z,35.53
2022-11-26T17:15:25.117Z,35.33
2022-11-26T17:18:01.149Z,34.80
2022-11-26T17:20:28.505Z,32.77
2022-11-26T17:22:55.881Z,32.73
2022-11-26T17:25:23.535Z,35.37
2022-11-26T17:27:50.968Z,33.63
2022-11-26T17:30:24.343Z,34.93
2022-11-26T17:32:52.836Z,31.50
2022-11-26T17:35:20.101Z,32.93
2022-11-26T17:37:58.521Z,31.57
2022-11-26T17:40:27.290Z,33.17
2022-11-26T17:42:54.982Z,33.13
2022-11-26T17:45:23.228Z,34.67
2022-11-26T17:47:51.210Z,34.00
2022-11-26T17:50:23.344Z,32.23
2022-11-26T17:52:52.121Z,31.33
2022-11-26T17:55:20.505Z,34.40
2022-11-26T17:57:48.013Z,33.13
2022-11-26T18:00:19.336Z,34.73
2022-11-26T18:02:46.824Z,36.50
2022-11-26T18:05:15.115Z,38.07
2022-11-26T18:07:44.869Z,36.80
2022-11-26T18:10:15.397Z,34.10
2022-11-26T18:12:45.939Z,29.67
2022-11-26T18:15:27.364Z,29.43
2022-11-26T18:17:56.858Z,32.07
2022-11-26T18:20:27.924Z,30.37
2022-11-26T18:23:00.391Z,33.07
2022-11-26T18:25:30.286Z,33.60
2022-11-26T18:27:59.304Z,35.00
2022-11-26T18:30:26.963Z,35.53
2022-11-26T18:32:54.713Z,34.80
2022-11-26T18:35:23.180Z,37.70
2022-11-26T18:37:52.161Z,39.00
2022-11-26T18:40:19.642Z,35.93
2022-11-26T18:42:52.551Z,42.43
2022-11-26T18:45:23.035Z,39.30
2022-11-26T18:47:50.306Z,44.93
2022-11-26T18:50:17.681Z,44.20
2022-11-26T18:52:46.686Z,72.10
2022-11-26T18:55:15.236Z,64.40
2022-11-26T18:57:42.600Z,63.07
2022-11-26T19:00:11.385Z,53.13
2022-11-26T19:02:38.724Z,46.03
2022-11-26T19:05:06.957Z,34.63
2022-11-26T19:07:34.704Z,46.73
2022-11-26T19:10:06.158Z,109.53
2022-11-26T19:12:36.902Z,101.00
2022-11-26T19:15:06.292Z,105.40
2022-11-26T19:17:34.394Z,102.50
2022-11-26T19:20:03.490Z,99.53
2022-11-26T19:22:33.102Z,84.20
2022-11-26T19:25:00.757Z,62.53
2022-11-26T19:27:28.284Z,57.30
2022-11-26T19:29:55.546Z,57.37
2022-11-26T19:32:23.159Z,53.60
2022-11-26T19:34:50.422Z,69.90
2022-11-26T19:37:18.725Z,56.73
2022-11-26T19:39:46.219Z,118.73
2022-11-26T19:42:18.373Z,108.60
2022-11-26T19:44:45.655Z,78.50
2022-11-26T19:47:13.402Z,91.53
2022-11-26T19:49:40.876Z,68.73
2022-11-26T19:52:08.440Z,63.50
2022-11-26T19:54:36.106Z,48.67
2022-11-26T19:57:03.304Z,45.70
2022-11-26T19:59:30.675Z,41.67
2022-11-26T20:01:58.024Z,38.97
2022-11-26T20:04:27.826Z,38.03
2022-11-26T20:06:55.293Z,38.47
2022-11-26T20:09:23.702Z,38.10
2022-11-26T20:11:50.864Z,41.33
2022-11-26T20:14:18.046Z,38.50
2022-11-26T20:16:46.071Z,37.67
2022-11-26T20:19:14.009Z,38.60
2022-11-26T20:21:41.330Z,43.77
2022-11-26T20:24:15.884Z,43.47
2022-11-26T20:26:44.596Z,39.17
2022-11-26T20:29:14.797Z,37.57
2022-11-26T20:31:53.383Z,39.50
2022-11-26T20:34:23.371Z,40.10
2022-11-26T20:36:50.901Z,39.30
2022-11-26T20:39:20.644Z,39.80
2022-11-26T20:41:48.407Z,41.03
2022-11-26T20:44:16.136Z,41.70
2022-11-26T20:46:43.550Z,40.50
2022-11-26T20:49:12.230Z,44.37
2022-11-26T20:51:39.908Z,47.57
2022-11-26T20:54:07.130Z,58.63
2022-11-26T20:56:34.502Z,55.67
2022-11-26T20:59:02.275Z,55.83
2022-11-26T21:01:30.608Z,54.00
2022-11-26T21:03:58.647Z,55.10
2022-11-26T21:06:31.849Z,56.47
2022-11-26T21:09:04.698Z,53.97
2022-11-26T21:11:32.246Z,49.90
2022-11-26T21:14:01.966Z,38.07
2022-11-26T21:16:30.611Z,36.20
2022-11-26T21:18:58.959Z,35.50
2022-11-26T21:21:28.198Z,37.40
2022-11-26T21:23:55.796Z,36.30
2022-11-26T21:26:25.174Z,37.60
2022-11-26T21:28:58.088Z,44.20
2022-11-26T21:31:27.203Z,43.30
2022-11-26T21:33:57.056Z,38.90
2022-11-26T21:36:25.793Z,43.10
2022-11-26T21:38:53.345Z,42.30
2022-11-26T21:41:21.964Z,46.83
2022-11-26T21:43:50.301Z,43.47
2022-11-26T21:46:20.549Z,43.67
2022-11-26T21:48:48.023Z,41.70
2022-11-26T21:51:18.068Z,41.30
2022-11-26T21:53:46.417Z,41.83
2022-11-26T21:56:16.114Z,37.73
2022-11-26T21:58:44.012Z,40.17
2022-11-26T22:01:16.525Z,40.90
2022-11-26T22:03:45.931Z,44.43
2022-11-26T22:06:14.086Z,50.03
2022-11-26T22:08:41.728Z,45.63
2022-11-26T22:11:17.616Z,46.80
2022-11-26T22:13:45.579Z,45.53
2022-11-26T22:16:16.164Z,48.10
2022-11-26T22:18:44.907Z,44.03
2022-11-26T22:21:18.338Z,44.37
2022-11-26T22:23:46.310Z,40.50
2022-11-26T22:26:13.968Z,43.93
2022-11-26T22:28:41.435Z,45.27
2022-11-26T22:31:14.570Z,47.83
2022-11-26T22:33:42.191Z,48.77
2022-11-26T22:36:10.008Z,46.17
2022-11-26T22:38:38.797Z,53.13
2022-11-26T22:41:08.239Z,48.13
2022-11-26T22:43:35.837Z,46.27
2022-11-26T22:46:13.781Z,46.67
2022-11-26T22:48:43.151Z,46.60
2022-11-26T22:51:10.997Z,51.27
2022-11-26T22:53:38.236Z,49.70
2022-11-26T22:56:06.388Z,50.10
2022-11-26T22:58:34.874Z,50.77
2022-11-26T23:01:06.335Z,59.50
2022-11-26T23:03:36.066Z,64.67
2022-11-26T23:06:10.973Z,85.70
2022-11-26T23:08:39.184Z,77.53
2022-11-26T23:11:14.548Z,71.57
2022-11-26T23:13:43.292Z,70.37
2022-11-26T23:16:11.242Z,64.83
2022-11-26T23:18:39.413Z,63.77
2022-11-26T23:21:09.356Z,73.07
2022-11-26T23:23:38.168Z,68.73
2022-11-26T23:26:07.099Z,80.60
2022-11-26T23:28:35.854Z,85.37
2022-11-26T23:31:07.370Z,85.20
2022-11-26T23:33:36.504Z,82.87
2022-11-26T23:36:04.120Z,78.90
2022-11-26T23:38:31.970Z,76.83
2022-11-26T23:41:01.865Z,84.87
2022-11-26T23:43:30.704Z,74.67
2022-11-26T23:46:19.114Z,68.53
2022-11-26T23:48:47.701Z,61.83
2022-11-26T23:51:21.416Z,63.50
2022-11-26T23:53:50.650Z,57.80
2022-11-26T23:56:22.288Z,63.00
2022-11-26T23:58:51.196Z,61.87
